createdAt,value
2023-02-02T00:00:09.211Z,3.33
2023-02-02T00:02:39.666Z,3.57
2023-02-02T00:05:12.120Z,3.50
2023-02-02T00:07:43.696Z,3.30
2023-02-02T00:10:15.578Z,2.93
2023-02-02T00:12:46.139Z,3.00
2023-02-02T00:15:18.187Z,3.00
2023-02-02T00:17:51.325Z,2.93
2023-02-02T00:20:22.660Z,3.60
2023-02-02T00:22:53.203Z,3.40
2023-02-02T00:25:25.411Z,3.13
2023-02-02T00:28:01.570Z,2.60
2023-02-02T00:30:32.605Z,3.30
2023-02-02T00:33:03.173Z,3.00
2023-02-02T00:35:33.729Z,3.30
2023-02-02T00:38:04.117Z,2.90
2023-02-02T00:40:34.526Z,3.00
2023-02-02T00:43:05.003Z,3.57
2023-02-02T00:45:35.660Z,3.40
2023-02-02T00:48:06.545Z,3.37
2023-02-02T00:50:38.179Z,3.63
2023-02-02T00:53:09.639Z,3.37
2023-02-02T00:55:41.651Z,3.20
2023-02-02T00:58:12.181Z,3.47
2023-02-02T01:00:42.637Z,3.00
2023-02-02T01:03:13.307Z,3.27
2023-02-02T01:05:43.754Z,3.00
2023-02-02T01:08:14.447Z,3.17
2023-02-02T01:10:44.834Z,3.00
2023-02-02T01:13:15.506Z,3.03
2023-02-02T01:15:45.860Z,3.20
2023-02-02T01:18:18.652Z,3.00
2023-02-02T01:20:49.088Z,3.03
2023-02-02T01:23:19.598Z,2.90
2023-02-02T01:25:58.244Z,3.27
2023-02-02T01:28:30.862Z,3.63
2023-02-02T01:31:07.824Z,2.92
2023-02-02T01:33:39.153Z,3.30
2023-02-02T01:36:12.578Z,3.20
2023-02-02T01:38:43.317Z,3.57
2023-02-02T01:41:17.576Z,2.80
2023-02-02T01:43:53.086Z,3.10
2023-02-02T01:46:36.483Z,3.37
2023-02-02T01:49:15.510Z,3.60
2023-02-02T01:52:05.081Z,3.43
2023-02-02T01:54:44.334Z,3.40
2023-02-02T01:57:18.114Z,2.70
2023-02-02T01:59:50.620Z,3.33
2023-02-02T02:02:21.532Z,3.07
2023-02-02T02:04:52.482Z,3.17
2023-02-02T02:07:24.436Z,2.90
2023-02-02T02:09:55.067Z,4.10
2023-02-02T02:12:27.425Z,3.25
2023-02-02T02:15:17.094Z,3.93
2023-02-02T02:18:03.948Z,2.93
2023-02-02T02:21:00.956Z,3.47
2023-02-02T02:23:51.841Z,3.60
2023-02-02T02:26:34.339Z,3.30
2023-02-02T02:29:26.398Z,3.17
2023-02-02T02:32:23.767Z,3.13
2023-02-02T02:35:23.170Z,3.37
2023-02-02T02:38:24.137Z,3.70
2023-02-02T02:41:00.613Z,3.08
2023-02-02T02:43:34.493Z,3.17
2023-02-02T02:46:06.918Z,3.77
2023-02-02T02:48:37.389Z,2.77
2023-02-02T02:51:09.435Z,2.77
2023-02-02T02:53:39.994Z,3.67
2023-02-02T02:56:21.448Z,3.27
2023-02-02T02:59:11.949Z,3.20
2023-02-02T03:01:55.719Z,2.95
2023-02-02T03:04:29.323Z,3.08
2023-02-02T03:07:04.446Z,2.90
2023-02-02T03:09:38.227Z,2.77
2023-02-02T03:12:08.726Z,2.83
2023-02-02T03:14:39.607Z,3.02
2023-02-02T03:17:10.360Z,2.50
2023-02-02T03:19:41.171Z,3.57
2023-02-02T03:22:12.075Z,2.30
2023-02-02T03:24:42.560Z,2.65
2023-02-02T03:27:13.196Z,2.63
2023-02-02T03:29:43.779Z,2.17
2023-02-02T03:32:14.216Z,3.57
2023-02-02T03:34:44.643Z,1.83
2023-02-02T03:37:15.632Z,2.00
2023-02-02T03:39:46.018Z,1.97
2023-02-02T03:42:16.601Z,2.20
2023-02-02T03:44:47.174Z,2.50
2023-02-02T03:47:19.829Z,2.22
2023-02-02T03:49:50.261Z,2.50
2023-02-02T03:52:20.728Z,2.25
2023-02-02T03:54:51.783Z,1.82
2023-02-02T03:57:22.209Z,2.73
2023-02-02T03:59:52.613Z,2.17
2023-02-02T04:02:23.464Z,2.23
2023-02-02T04:04:54.014Z,2.30
2023-02-02T04:07:24.506Z,2.20
2023-02-02T04:09:55.044Z,2.03
2023-02-02T04:12:25.689Z,2.03
2023-02-02T04:14:56.137Z,2.02
2023-02-02T04:17:26.553Z,2.00
2023-02-02T04:19:58.455Z,2.10
2023-02-02T04:22:29.135Z,2.10
2023-02-02T04:24:59.593Z,2.10
2023-02-02T04:27:31.860Z,2.30
2023-02-02T04:30:02.524Z,2.50
2023-02-02T04:32:33.057Z,2.33
2023-02-02T04:35:03.569Z,2.30
2023-02-02T04:37:34.146Z,2.57
2023-02-02T04:40:04.981Z,2.30
2023-02-02T04:42:35.533Z,2.40
2023-02-02T04:45:06.799Z,2.72
2023-02-02T04:47:37.571Z,1.97
2023-02-02T04:50:11.638Z,2.30
2023-02-02T04:52:43.762Z,2.83
2023-02-02T04:55:16.258Z,2.67
2023-02-02T04:57:46.687Z,2.37
2023-02-02T05:00:17.828Z,2.73
2023-02-02T05:02:48.417Z,2.40
2023-02-02T05:05:20.334Z,2.17
2023-02-02T05:07:50.788Z,2.40
2023-02-02T05:10:21.348Z,2.75
2023-02-02T05:12:55.053Z,3.22
2023-02-02T05:15:25.989Z,2.20
2023-02-02T05:17:58.913Z,2.50
2023-02-02T05:20:29.635Z,3.30
2023-02-02T05:23:00.168Z,2.53
2023-02-02T05:25:30.647Z,2.50
2023-02-02T05:28:05.379Z,2.40
2023-02-02T05:30:34.516Z,2.80
2023-02-02T05:33:05.240Z,2.30
2023-02-02T05:35:35.977Z,2.00
2023-02-02T05:38:06.722Z,2.40
2023-02-02T05:40:37.109Z,2.67
2023-02-02T05:43:07.605Z,1.83
2023-02-02T05:45:38.215Z,2.87
2023-02-02T05:48:10.503Z,2.00
2023-02-02T05:50:46.152Z,2.43
2023-02-02T05:53:17.813Z,2.73
2023-02-02T05:55:48.573Z,1.90
2023-02-02T05:58:19.046Z,2.63
2023-02-02T06:00:50.394Z,2.37
2023-02-02T06:03:21.262Z,2.43
2023-02-02T06:05:51.808Z,2.43
2023-02-02T06:08:24.254Z,2.50
2023-02-02T06:10:54.751Z,2.27
2023-02-02T06:13:28.910Z,2.60
2023-02-02T06:15:59.385Z,2.37
2023-02-02T06:18:30.048Z,3.03
2023-02-02T06:21:01.692Z,2.43
2023-02-02T06:23:33.247Z,2.30
2023-02-02T06:26:05.093Z,2.90
2023-02-02T06:28:37.347Z,2.40
2023-02-02T06:31:10.493Z,2.40
2023-02-02T06:33:41.050Z,2.13
2023-02-02T06:36:12.199Z,2.13
2023-02-02T06:38:42.631Z,2.67
2023-02-02T06:41:13.154Z,1.83
2023-02-02T06:43:44.747Z,2.52
2023-02-02T06:46:16.186Z,2.20
2023-02-02T06:48:46.830Z,2.07
2023-02-02T06:51:20.538Z,2.33
2023-02-02T06:53:51.437Z,2.63
2023-02-02T06:56:22.868Z,2.30
2023-02-02T06:58:53.452Z,2.43
2023-02-02T07:01:24.244Z,2.50
2023-02-02T07:03:54.801Z,2.30
2023-02-02T07:06:30.952Z,2.17
2023-02-02T07:09:03.361Z,2.20
2023-02-02T07:11:42.547Z,1.93
2023-02-02T07:14:12.145Z,2.20
2023-02-02T07:16:42.708Z,1.77
2023-02-02T07:19:13.181Z,2.73
2023-02-02T07:21:43.700Z,2.27
2023-02-02T07:24:14.513Z,2.73
2023-02-02T07:26:45.102Z,2.13
2023-02-02T07:29:16.103Z,2.20
2023-02-02T07:31:47.013Z,2.13
2023-02-02T07:34:17.584Z,2.20
2023-02-02T07:36:49.296Z,1.93
2023-02-02T07:39:19.849Z,2.60
2023-02-02T07:41:50.473Z,2.70
2023-02-02T07:44:21.046Z,3.17
2023-02-02T07:46:52.689Z,2.23
2023-02-02T07:49:24.380Z,2.47
2023-02-02T07:51:54.924Z,2.40
2023-02-02T07:54:26.493Z,2.80
2023-02-02T07:56:57.739Z,2.60
2023-02-02T07:59:30.042Z,2.63
2023-02-02T08:02:00.766Z,2.87
2023-02-02T08:04:34.352Z,2.47
2023-02-02T08:07:05.066Z,2.53
2023-02-02T08:09:37.249Z,2.47
2023-02-02T08:12:08.218Z,2.87
2023-02-02T08:14:41.154Z,2.35
2023-02-02T08:17:12.539Z,2.40
2023-02-02T08:22:23.032Z,2.00
2023-02-02T08:24:55.782Z,2.87
2023-02-02T08:27:28.368Z,2.17
2023-02-02T08:29:58.892Z,3.10
2023-02-02T08:32:30.834Z,2.43
2023-02-02T08:35:01.310Z,2.58
2023-02-02T08:37:32.292Z,2.47
2023-02-02T08:40:03.727Z,2.67
2023-02-02T08:42:34.277Z,2.47
2023-02-02T08:46:01.605Z,2.93
2023-02-02T08:47:40.411Z,2.80
2023-02-02T08:50:14.279Z,3.52
2023-02-02T08:52:44.834Z,2.60
2023-02-02T08:55:16.867Z,2.07
2023-02-02T08:57:47.695Z,2.00
2023-02-02T09:00:18.997Z,2.20
2023-02-02T09:02:52.333Z,2.77
2023-02-02T09:05:23.178Z,3.20
2023-02-02T09:07:56.539Z,3.27
2023-02-02T09:10:28.311Z,3.17
2023-02-02T09:12:58.828Z,2.20
2023-02-02T09:15:31.165Z,2.20
2023-02-02T09:18:02.144Z,2.73
2023-02-02T09:20:34.025Z,2.60
2023-02-02T09:23:04.602Z,2.93
2023-02-02T09:25:36.693Z,2.53
2023-02-02T09:28:07.276Z,2.20
2023-02-02T09:30:37.900Z,2.60
2023-02-02T09:33:08.742Z,2.10
2023-02-02T09:35:39.263Z,2.50
2023-02-02T09:38:12.177Z,1.87
2023-02-02T09:40:43.162Z,2.57
2023-02-02T09:43:37.051Z,2.52
2023-02-02T09:46:10.629Z,1.90
2023-02-02T09:48:44.474Z,1.90
2023-02-02T09:51:20.874Z,2.17
2023-02-02T09:54:02.087Z,2.37
2023-02-02T09:56:42.636Z,2.00
2023-02-02T09:59:29.546Z,2.35
2023-02-02T10:02:06.455Z,2.33
2023-02-02T10:04:39.762Z,2.40
2023-02-02T10:07:18.560Z,2.57
2023-02-02T10:10:13.869Z,2.60
2023-02-02T10:13:06.767Z,2.40
2023-02-02T10:16:02.430Z,1.93
2023-02-02T10:18:51.797Z,2.40
2023-02-02T10:21:28.290Z,2.10
2023-02-02T10:24:01.268Z,2.30
2023-02-02T10:26:39.961Z,1.67
2023-02-02T10:29:19.133Z,2.50
2023-02-02T10:32:06.428Z,1.77
2023-02-02T10:34:45.326Z,2.20
2023-02-02T10:37:33.752Z,2.08
2023-02-02T10:40:22.147Z,2.00
2023-02-02T10:43:22.689Z,1.57
2023-02-02T10:45:53.972Z,1.92
2023-02-02T10:48:31.804Z,1.95
2023-02-02T10:51:05.708Z,2.15
2023-02-02T10:53:36.898Z,1.82
2023-02-02T10:56:14.055Z,1.70
2023-02-02T10:58:54.173Z,2.90
2023-02-02T11:01:26.766Z,2.73
2023-02-02T11:04:15.940Z,2.58
2023-02-02T11:06:52.715Z,3.23
2023-02-02T11:09:28.357Z,1.90
2023-02-02T11:12:08.146Z,6.50
2023-02-02T11:14:47.702Z,2.30
2023-02-02T11:17:21.462Z,2.72
2023-02-02T11:19:55.760Z,2.47
2023-02-02T11:22:35.290Z,1.77
2023-02-02T11:25:11.403Z,1.72
2023-02-02T11:27:44.977Z,2.05
2023-02-02T11:30:36.959Z,1.92
2023-02-02T11:33:38.334Z,2.05
2023-02-02T11:36:22.569Z,1.98
2023-02-02T11:39:01.953Z,2.02
2023-02-02T11:41:35.646Z,2.40
2023-02-02T11:44:09.603Z,2.33
2023-02-02T11:46:40.450Z,2.17
2023-02-02T11:49:23.700Z,2.00
2023-02-02T11:52:08.729Z,2.57
2023-02-02T11:54:40.270Z,2.12
2023-02-02T11:57:11.657Z,2.37
2023-02-02T11:59:45.073Z,1.85
2023-02-02T12:02:25.051Z,1.72
2023-02-02T12:05:14.688Z,1.43
2023-02-02T12:07:46.295Z,1.80
2023-02-02T12:10:23.175Z,2.33
2023-02-02T12:13:15.082Z,2.17
2023-02-02T12:16:00.701Z,2.27
2023-02-02T12:18:58.100Z,2.40
2023-02-02T12:21:37.836Z,1.90
2023-02-02T12:24:37.112Z,2.20
2023-02-02T12:27:28.502Z,1.87
2023-02-02T12:30:16.861Z,1.90
2023-02-02T12:33:25.399Z,2.80
2023-02-02T12:36:17.190Z,2.27
2023-02-02T12:39:11.454Z,1.60
2023-02-02T12:42:06.566Z,2.20
2023-02-02T12:45:13.281Z,2.40
2023-02-02T12:48:03.303Z,2.23
2023-02-02T12:50:39.479Z,1.87
2023-02-02T12:53:41.024Z,2.37
2023-02-02T12:56:47.323Z,2.03
2023-02-02T12:59:35.372Z,2.27
2023-02-02T13:02:20.502Z,1.83
2023-02-02T13:05:05.110Z,1.83
2023-02-02T13:07:45.197Z,2.10
2023-02-02T13:10:25.302Z,1.25
2023-02-02T13:13:01.445Z,1.67
2023-02-02T13:15:38.483Z,1.93
2023-02-02T13:18:30.985Z,1.82
2023-02-02T13:21:06.855Z,1.90
2023-02-02T13:23:41.468Z,1.65
2023-02-02T13:26:27.788Z,1.70
2023-02-02T13:29:10.548Z,2.10
2023-02-02T13:31:55.025Z,2.53
2023-02-02T13:34:39.156Z,1.82
2023-02-02T13:37:17.161Z,1.42
2023-02-02T13:39:50.778Z,2.00
2023-02-02T13:42:27.272Z,1.83
2023-02-02T13:45:06.402Z,2.00
2023-02-02T13:47:41.441Z,1.67
2023-02-02T13:50:21.498Z,2.05
2023-02-02T13:53:23.755Z,1.60
2023-02-02T13:56:09.156Z,2.30
2023-02-02T13:59:08.866Z,2.17
2023-02-02T14:01:44.684Z,2.00
2023-02-02T14:04:30.276Z,1.97
2023-02-02T14:09:39.136Z,1.62
2023-02-02T14:12:17.352Z,1.67
2023-02-02T14:14:48.986Z,2.67
2023-02-02T14:17:25.464Z,1.67
2023-02-02T14:20:01.562Z,1.90
2023-02-02T14:22:50.161Z,1.80
2023-02-02T14:25:41.417Z,1.40
2023-02-02T14:28:19.159Z,1.80
2023-02-02T14:30:52.903Z,1.47
2023-02-02T14:33:27.495Z,1.82
2023-02-02T14:36:02.204Z,2.02
2023-02-02T14:39:00.960Z,1.73
2023-02-02T14:42:04.253Z,1.57
2023-02-02T14:44:39.151Z,1.97
2023-02-02T14:47:30.216Z,2.15
2023-02-02T14:50:04.409Z,1.95
2023-02-02T14:52:48.840Z,1.37
2023-02-02T14:55:27.302Z,1.67
2023-02-02T14:58:05.375Z,2.00
2023-02-02T15:00:37.141Z,1.45
2023-02-02T15:03:39.485Z,2.30
2023-02-02T15:06:36.980Z,1.90
2023-02-02T15:09:29.386Z,1.40
2023-02-02T15:12:15.454Z,2.13
2023-02-02T15:14:59.671Z,2.30
2023-02-02T15:17:49.206Z,2.20
2023-02-02T15:20:45.574Z,2.20
2023-02-02T15:23:28.910Z,2.70
2023-02-02T15:26:23.103Z,1.60
2023-02-02T15:29:02.495Z,2.37
2023-02-02T15:31:50.961Z,3.23
2023-02-02T15:34:35.986Z,2.27
2023-02-02T15:37:10.132Z,2.80
2023-02-02T15:39:52.121Z,2.77
2023-02-02T15:42:48.886Z,2.17
2023-02-02T15:45:46.050Z,2.63
2023-02-02T15:48:31.833Z,3.67
2023-02-02T15:51:11.321Z,3.17
2023-02-02T15:53:52.954Z,3.00
2023-02-02T15:56:32.115Z,2.53
2023-02-02T15:59:27.595Z,2.37
2023-02-02T16:02:12.710Z,1.90
2023-02-02T16:04:48.021Z,1.90
2023-02-02T16:07:35.194Z,2.97
2023-02-02T16:10:08.341Z,2.93
2023-02-02T16:12:41.091Z,2.17
2023-02-02T16:15:20.791Z,2.60
2023-02-02T16:18:07.931Z,2.40
2023-02-02T16:20:41.965Z,2.10
2023-02-02T16:23:20.683Z,2.42
2023-02-02T16:25:55.090Z,2.50
2023-02-02T16:28:27.196Z,1.97
2023-02-02T16:31:02.389Z,2.23
2023-02-02T16:33:40.056Z,2.27
2023-02-02T16:36:30.565Z,2.77
2023-02-02T16:39:03.909Z,2.58
2023-02-02T16:41:39.134Z,2.00
2023-02-02T16:44:36.050Z,2.30
2023-02-02T16:47:09.168Z,3.37
2023-02-02T16:49:41.931Z,3.07
2023-02-02T16:52:21.301Z,2.27
2023-02-02T16:54:54.881Z,2.70
2023-02-02T16:57:34.049Z,2.37
2023-02-02T17:00:07.185Z,4.43
2023-02-02T17:02:42.382Z,3.67
2023-02-02T17:05:31.327Z,2.07
2023-02-02T17:08:06.031Z,2.90
2023-02-02T17:10:42.900Z,4.17
2023-02-02T17:13:36.606Z,3.57
2023-02-02T17:16:08.081Z,5.70
2023-02-02T17:18:39.558Z,4.23
2023-02-02T17:21:18.985Z,4.67
2023-02-02T17:23:56.489Z,5.30
2023-02-02T17:26:29.516Z,4.50
2023-02-02T17:29:02.113Z,3.20
2023-02-02T17:31:38.528Z,3.77
2023-02-02T17:34:17.674Z,4.23
2023-02-02T17:36:48.134Z,3.87
2023-02-02T17:39:25.198Z,5.43
2023-02-02T17:41:55.656Z,6.27
2023-02-02T17:44:27.459Z,7.23
2023-02-02T17:47:00.308Z,6.17
2023-02-02T17:49:33.723Z,7.83
2023-02-02T17:52:04.371Z,6.87
2023-02-02T17:54:35.305Z,5.83
2023-02-02T17:57:08.057Z,6.57
2023-02-02T17:59:40.272Z,11.90
2023-02-02T18:02:14.668Z,15.03
2023-02-02T18:04:53.932Z,20.93
2023-02-02T18:07:24.674Z,12.83
2023-02-02T18:09:56.408Z,7.23
2023-02-02T18:12:26.981Z,7.83
2023-02-02T18:14:59.690Z,7.73
2023-02-02T18:17:38.628Z,7.40
2023-02-02T18:20:10.761Z,7.40
2023-02-02T18:22:50.712Z,9.03
2023-02-02T18:25:25.038Z,8.33
2023-02-02T18:28:00.779Z,7.07
2023-02-02T18:30:32.895Z,6.23
2023-02-02T18:33:09.625Z,5.90
2023-02-02T18:35:45.342Z,6.70
2023-02-02T18:38:16.417Z,5.93
2023-02-02T18:40:51.386Z,6.57
2023-02-02T18:43:24.546Z,6.10
2023-02-02T18:46:06.144Z,6.00
2023-02-02T18:48:41.148Z,5.90
2023-02-02T18:51:18.101Z,5.43
2023-02-02T18:53:49.876Z,5.77
2023-02-02T18:56:21.288Z,7.73
2023-02-02T18:58:52.223Z,7.73
2023-02-02T19:01:26.094Z,6.60
2023-02-02T19:04:00.178Z,7.50
2023-02-02T19:06:51.439Z,7.50
2023-02-02T19:09:23.964Z,7.80
2023-02-02T19:11:56.340Z,7.40
2023-02-02T19:14:36.024Z,6.90
2023-02-02T19:17:25.232Z,8.70
2023-02-02T19:20:00.612Z,7.53
2023-02-02T19:22:32.533Z,7.27
2023-02-02T19:25:06.051Z,7.10
2023-02-02T19:27:37.727Z,7.33
2023-02-02T19:30:17.101Z,6.27
2023-02-02T19:32:49.675Z,6.63
2023-02-02T19:35:23.844Z,6.07
2023-02-02T19:37:59.776Z,6.93
2023-02-02T19:40:31.781Z,8.73
2023-02-02T19:43:08.009Z,7.37
2023-02-02T19:45:41.952Z,7.15
2023-02-02T19:48:26.159Z,7.43
2023-02-02T19:51:00.436Z,9.83
2023-02-02T19:53:43.603Z,10.20
2023-02-02T19:56:31.258Z,9.53
2023-02-02T19:59:03.132Z,7.57
2023-02-02T20:01:36.989Z,8.33
2023-02-02T20:04:13.694Z,7.90
2023-02-02T20:06:57.997Z,7.10
2023-02-02T20:09:24.305Z,7.23
2023-02-02T20:11:57.753Z,7.40
2023-02-02T20:14:31.660Z,6.60
2023-02-02T20:17:04.967Z,5.90
2023-02-02T20:19:39.282Z,6.33
2023-02-02T20:22:29.405Z,5.30
2023-02-02T20:25:09.793Z,5.40
2023-02-02T20:27:43.453Z,5.27
2023-02-02T20:30:22.644Z,6.23
2023-02-02T20:32:56.563Z,6.40
2023-02-02T20:35:39.628Z,5.70
2023-02-02T20:38:31.082Z,6.53
2023-02-02T20:41:03.623Z,5.20
2023-02-02T20:43:35.879Z,4.63
2023-02-02T20:46:06.997Z,4.20
2023-02-02T20:48:40.527Z,4.17
2023-02-02T20:51:11.476Z,4.57
2023-02-02T20:53:45.197Z,5.40
2023-02-02T20:56:17.810Z,6.47
2023-02-02T20:58:48.422Z,5.30
2023-02-02T21:01:19.750Z,5.37
2023-02-02T21:03:51.879Z,5.17
2023-02-02T21:06:23.491Z,5.87
2023-02-02T21:08:58.595Z,4.90
2023-02-02T21:11:29.900Z,5.90
2023-02-02T21:14:02.974Z,5.60
2023-02-02T21:16:33.903Z,5.90
2023-02-02T21:19:08.504Z,5.60
2023-02-02T21:21:41.535Z,7.77
2023-02-02T21:24:12.170Z,4.87
2023-02-02T21:26:42.835Z,4.40
2023-02-02T21:29:16.059Z,6.13
2023-02-02T21:31:48.927Z,10.37
2023-02-02T21:34:21.720Z,8.40
2023-02-02T21:37:00.224Z,6.80
2023-02-02T21:39:33.876Z,6.40
2023-02-02T21:42:14.629Z,6.00
2023-02-02T21:45:07.011Z,6.50
2023-02-02T21:47:41.294Z,7.30
2023-02-02T21:50:30.121Z,7.57
2023-02-02T21:53:23.131Z,8.00
2023-02-02T21:56:01.525Z,8.60
2023-02-02T21:58:43.612Z,7.93
2023-02-02T22:01:25.100Z,5.50
2023-02-02T22:03:59.128Z,5.30
2023-02-02T22:06:43.501Z,5.80
2023-02-02T22:09:27.755Z,7.27
2023-02-02T22:12:03.719Z,6.07
2023-02-02T22:14:42.491Z,5.70
2023-02-02T22:17:18.928Z,5.53
2023-02-02T22:19:51.894Z,6.17
2023-02-02T22:22:24.359Z,5.50
2023-02-02T22:25:07.015Z,6.70
2023-02-02T22:27:43.674Z,5.63
2023-02-02T22:30:40.519Z,6.70
2023-02-02T22:33:17.947Z,7.33
2023-02-02T22:35:48.631Z,8.30
2023-02-02T22:38:23.933Z,7.03
2023-02-02T22:40:56.339Z,6.00
2023-02-02T22:43:28.309Z,7.13
2023-02-02T22:45:59.234Z,9.33
2023-02-02T22:48:31.495Z,9.50
2023-02-02T22:51:03.400Z,7.33
2023-02-02T22:53:36.186Z,7.53
2023-02-02T22:56:07.572Z,6.03
2023-02-02T22:58:40.109Z,5.17
2023-02-02T23:01:11.856Z,5.10
2023-02-02T23:03:42.567Z,5.33
2023-02-02T23:06:15.796Z,4.40
2023-02-02T23:08:49.106Z,6.73
2023-02-02T23:11:20.031Z,4.97
2023-02-02T23:13:54.890Z,4.97
2023-02-02T23:16:27.284Z,4.80
2023-02-02T23:18:59.956Z,4.75
2023-02-02T23:21:30.187Z,5.78
2023-02-02T23:24:00.809Z,5.00
2023-02-02T23:26:32.886Z,3.87
2023-02-02T23:29:04.012Z,3.37
2023-02-02T23:31:34.872Z,4.07
2023-02-02T23:34:07.160Z,3.77
2023-02-02T23:36:39.933Z,4.43
2023-02-02T23:39:11.366Z,4.40
2023-02-02T23:41:43.665Z,5.00
2023-02-02T23:44:14.436Z,4.77
2023-02-02T23:46:45.074Z,5.77
2023-02-02T23:49:17.652Z,6.47
2023-02-02T23:51:50.416Z,7.47
2023-02-02T23:54:20.914Z,7.40
2023-02-02T23:56:53.778Z,7.60
2023-02-02T23:59:24.526Z,7.20
